947  
SHUS65 KGJT 152011  
FWOGJT  
 
DAILY FIRE WEATHER OBSERVATION  
NATIONAL WEATHER SERVICE GRAND JUNCTION CO  
111 PM MST FRI NOV 15 2019  
 
STATE OF THE WEATHER (W) 2  
DRY BULB TEMPERATURE 57 DEGREES FAHRENHEIT  
RELATIVE HUMIDITY (RH) 20 PERCENT  
LIGHTNING ACTIVITY LEVEL  
(LAL - MIDNIGHT TO 2 PM) 1  
WIND DIRECTION C DEGREES (C IF CALM)  
WIND SPEED 0 MPH  
MAX TEMP (2 PM - 2 PM) 59 DEGREES FAHRENHEIT  
MIN TEMP (2 PM - 2 PM) 28 DEGREES FAHRENHEIT  
MAX RH (2 PM - 2 PM) 51 PERCENT  
MIN RH (2 PM - 2 PM) 20 PERCENT  
PCPN DURATION 0.0 HOURS  
PCPN AMT (2 PM - 2 PM) 0.0 INCHES  
LAL (2 PM - 2 PM) 1  
 

 
 
METAR KGJT 151853Z VRB03KT 10SM CLR 13/M08 A3024 RMK AO2 SLP220  
T01281083  
 
CLICK HERE TO GO TO PREVIOUS BULLETINS.

The Nexlab CO Page
The Nexlab UT Page Main Text Page